Terminal Aerodrome Forecast
Issued by NWS

Current Version | Previous Version | Graphics & Text | Print | Product List | Glossary On
Versions: 1 2 3 4 5 6 7 8 9 10 11 12 13 14 15 16 17
000
FTUS41 KRNK 211110 AAA
TAFLWB
TAF AMD
KLWB 211110Z 2111/2206 02004KT 4SM BR BKN100
      TEMPO 2111/2113 1SM BR
     FM211400 00000KT P6SM SCT050
     FM211800 VRB04KT P6SM VCTS BKN050CB=

USA.gov is the U.S. government's official web portal to all federal, state and local government web resources and services.